createdAt,value
2022-12-06T00:01:38.657Z,33.87
2022-12-06T00:04:08.677Z,36.17
2022-12-06T00:06:54.753Z,33.13
2022-12-06T00:09:30.515Z,33.97
2022-12-06T00:11:58.100Z,37.20
2022-12-06T00:14:26.498Z,35.63
2022-12-06T00:16:53.883Z,35.77
2022-12-06T00:19:23.184Z,37.20
2022-12-06T00:21:50.254Z,33.73
2022-12-06T00:24:20.515Z,40.80
2022-12-06T00:26:48.921Z,37.63
2022-12-06T00:29:21.823Z,36.37
2022-12-06T00:31:49.281Z,35.57
2022-12-06T00:34:16.714Z,35.83
2022-12-06T00:36:44.395Z,38.70
2022-12-06T00:39:14.640Z,44.73
2022-12-06T00:41:42.657Z,40.23
2022-12-06T00:44:10.964Z,41.53
2022-12-06T00:46:38.263Z,42.47
2022-12-06T00:49:07.170Z,38.00
2022-12-06T00:51:35.591Z,41.40
2022-12-06T00:54:03.799Z,39.40
2022-12-06T00:56:31.031Z,35.83
2022-12-06T00:58:58.443Z,43.50
2022-12-06T01:01:27.717Z,40.20
2022-12-06T01:03:58.020Z,42.50
2022-12-06T01:06:28.210Z,36.13
2022-12-06T01:08:57.618Z,41.33
2022-12-06T01:11:25.407Z,35.73
2022-12-06T01:13:53.481Z,38.80
2022-12-06T01:16:23.886Z,39.40
2022-12-06T01:18:56.481Z,43.70
2022-12-06T01:21:24.499Z,38.13
2022-12-06T01:23:54.364Z,45.40
2022-12-06T01:26:25.226Z,39.13
2022-12-06T01:28:52.851Z,43.33
2022-12-06T01:31:20.414Z,37.50
2022-12-06T01:33:47.934Z,41.90
2022-12-06T01:36:23.762Z,43.10
2022-12-06T01:38:52.763Z,45.00
2022-12-06T01:41:20.917Z,40.17
2022-12-06T01:43:48.312Z,41.57
2022-12-06T01:46:30.525Z,45.13
2022-12-06T01:49:09.035Z,46.80
2022-12-06T01:51:37.031Z,44.87
2022-12-06T01:54:07.937Z,42.37
2022-12-06T01:56:37.618Z,43.07
2022-12-06T01:59:06.445Z,40.50
2022-12-06T02:01:35.003Z,40.07
2022-12-06T02:04:02.656Z,44.13
2022-12-06T02:06:30.958Z,37.23
2022-12-06T02:09:00.907Z,43.53
2022-12-06T02:11:33.530Z,39.17
2022-12-06T02:14:05.299Z,47.63
2022-12-06T02:17:05.424Z,42.27
2022-12-06T02:19:58.209Z,43.50
2022-12-06T02:22:34.077Z,45.13
2022-12-06T02:25:22.348Z,40.10
2022-12-06T02:28:05.852Z,43.80
2022-12-06T02:30:39.158Z,45.53
2022-12-06T02:33:30.546Z,46.37
2022-12-06T02:36:11.964Z,42.60
2022-12-06T02:38:51.131Z,37.60
2022-12-06T02:41:40.344Z,38.60
2022-12-06T02:44:12.807Z,39.83
2022-12-06T02:46:41.624Z,41.23
2022-12-06T02:49:10.707Z,42.77
2022-12-06T02:51:38.850Z,47.07
2022-12-06T02:54:09.116Z,40.70
2022-12-06T02:56:36.349Z,42.33
2022-12-06T02:59:03.360Z,48.23
2022-12-06T03:01:38.523Z,39.30
2022-12-06T03:04:32.720Z,43.60
2022-12-06T03:07:34.253Z,42.90
2022-12-06T03:10:37.854Z,39.07
2022-12-06T03:13:18.345Z,45.23
2022-12-06T03:15:58.944Z,45.77
2022-12-06T03:19:12.055Z,39.30
2022-12-06T03:21:46.232Z,45.00
2022-12-06T03:24:16.559Z,47.03
2022-12-06T03:26:47.755Z,40.40
2022-12-06T03:29:17.873Z,44.33
2022-12-06T03:31:46.345Z,41.67
2022-12-06T03:34:25.022Z,42.53
2022-12-06T03:36:53.161Z,44.00
2022-12-06T03:39:31.709Z,42.30
2022-12-06T03:42:00.086Z,43.57
2022-12-06T03:44:27.313Z,39.77
2022-12-06T03:47:00.884Z,37.83
2022-12-06T03:49:43.405Z,40.10
2022-12-06T03:52:10.631Z,41.00
2022-12-06T03:54:41.467Z,43.40
2022-12-06T03:57:09.805Z,36.97
2022-12-06T03:59:36.977Z,38.37
2022-12-06T04:02:04.081Z,41.10
2022-12-06T04:04:31.625Z,40.93
2022-12-06T04:06:58.687Z,37.27
2022-12-06T04:09:44.547Z,40.13
2022-12-06T04:12:29.872Z,37.53
2022-12-06T04:14:57.058Z,40.27
2022-12-06T04:17:44.116Z,40.37
2022-12-06T04:20:11.457Z,39.53
2022-12-06T04:22:56.883Z,40.13
2022-12-06T04:25:24.122Z,33.60
2022-12-06T04:28:09.872Z,44.83
2022-12-06T04:30:55.984Z,40.03
2022-12-06T04:33:41.794Z,39.87
2022-12-06T04:36:27.925Z,41.37
2022-12-06T04:38:54.930Z,41.67
2022-12-06T04:41:40.736Z,43.67
2022-12-06T04:44:08.031Z,37.83
2022-12-06T04:46:35.309Z,39.30
2022-12-06T04:49:02.661Z,44.87
2022-12-06T04:51:29.971Z,37.13
2022-12-06T04:53:56.957Z,39.63
2022-12-06T04:56:24.181Z,39.47
2022-12-06T04:58:51.338Z,40.43
2022-12-06T05:01:18.887Z,42.10
2022-12-06T05:03:46.327Z,42.60
2022-12-06T05:06:13.596Z,43.00
2022-12-06T05:08:40.539Z,43.73
2022-12-06T05:11:07.792Z,39.37
2022-12-06T05:13:35.445Z,37.80
2022-12-06T05:16:05.461Z,42.00
2022-12-06T05:18:33.812Z,40.50
2022-12-06T05:21:08.629Z,37.40
2022-12-06T05:23:36.249Z,37.83
2022-12-06T05:26:09.222Z,41.70
2022-12-06T05:28:36.196Z,34.40
2022-12-06T05:31:03.709Z,34.57
2022-12-06T05:33:31.135Z,35.33
2022-12-06T05:35:58.665Z,36.73
2022-12-06T05:38:25.703Z,39.17
2022-12-06T05:40:52.877Z,42.33
2022-12-06T05:43:19.850Z,35.20
2022-12-06T05:45:47.316Z,34.40
2022-12-06T05:48:14.268Z,33.97
2022-12-06T05:50:41.442Z,35.27
2022-12-06T05:53:09.983Z,32.93
2022-12-06T05:55:37.274Z,33.53
2022-12-06T05:58:04.530Z,29.70
2022-12-06T06:00:31.722Z,31.13
2022-12-06T06:02:59.807Z,32.57
2022-12-06T06:05:27.274Z,37.67
2022-12-06T06:07:55.183Z,35.80
2022-12-06T06:10:22.930Z,37.37
2022-12-06T06:12:49.909Z,32.40
2022-12-06T06:15:17.646Z,33.37
2022-12-06T06:17:44.747Z,31.77
2022-12-06T06:20:13.851Z,35.30
2022-12-06T06:22:42.457Z,33.03
2022-12-06T06:25:09.957Z,33.47
2022-12-06T06:27:37.924Z,32.60
2022-12-06T06:30:08.533Z,33.20
2022-12-06T06:32:36.131Z,35.13
2022-12-06T06:35:04.471Z,35.27
2022-12-06T06:37:32.416Z,32.50
2022-12-06T06:40:01.002Z,36.07
2022-12-06T06:42:28.192Z,34.70
2022-12-06T06:44:55.546Z,34.87
2022-12-06T06:47:22.976Z,31.67
2022-12-06T06:49:50.506Z,36.40
2022-12-06T06:52:17.589Z,31.77
2022-12-06T06:54:44.845Z,32.70
2022-12-06T06:57:17.414Z,33.50
2022-12-06T06:59:45.863Z,34.13
2022-12-06T07:02:14.100Z,39.13
2022-12-06T07:04:42.431Z,31.80
2022-12-06T07:07:09.680Z,34.37
2022-12-06T07:09:38.246Z,31.10
2022-12-06T07:12:05.660Z,36.97
2022-12-06T07:14:32.997Z,35.63
2022-12-06T07:17:00.139Z,31.63
2022-12-06T07:19:27.438Z,32.83
2022-12-06T07:21:54.413Z,36.20
2022-12-06T07:24:21.672Z,33.00
2022-12-06T07:26:48.670Z,33.10
2022-12-06T07:29:15.912Z,34.47
2022-12-06T07:31:42.917Z,33.70
2022-12-06T07:34:10.187Z,39.83
2022-12-06T07:36:37.269Z,29.87
2022-12-06T07:39:08.907Z,39.20
2022-12-06T07:41:57.653Z,35.17
2022-12-06T07:44:43.450Z,40.30
2022-12-06T07:47:10.410Z,41.30
2022-12-06T07:49:37.687Z,34.23
2022-12-06T07:52:04.753Z,36.33
2022-12-06T07:54:31.941Z,37.73
2022-12-06T07:56:58.925Z,39.97
2022-12-06T07:59:26.732Z,39.47
2022-12-06T08:01:54.456Z,44.60
2022-12-06T08:04:21.829Z,55.37
2022-12-06T08:06:48.885Z,76.97
2022-12-06T08:09:16.109Z,46.23
2022-12-06T08:11:43.105Z,40.67
2022-12-06T08:14:11.358Z,47.97
2022-12-06T08:16:41.148Z,48.93
2022-12-06T08:19:08.589Z,42.50
2022-12-06T08:21:35.599Z,41.60
2022-12-06T08:24:04.176Z,46.63
2022-12-06T08:26:31.255Z,45.53
2022-12-06T08:29:01.181Z,47.43
2022-12-06T08:31:29.125Z,49.40
2022-12-06T08:33:56.715Z,45.87
2022-12-06T08:36:24.799Z,45.77
2022-12-06T08:38:52.899Z,46.67
2022-12-06T08:41:39.361Z,45.70
2022-12-06T08:44:07.762Z,56.73
2022-12-06T08:46:35.273Z,45.20
2022-12-06T08:49:02.879Z,43.57
2022-12-06T08:51:31.126Z,45.40
2022-12-06T08:53:58.457Z,54.27
2022-12-06T08:56:25.981Z,50.53
2022-12-06T08:58:54.371Z,54.27
2022-12-06T09:01:24.442Z,52.50
2022-12-06T09:03:52.750Z,53.13
2022-12-06T09:06:21.101Z,53.73
2022-12-06T09:08:48.960Z,48.07
2022-12-06T09:11:16.545Z,52.63
2022-12-06T09:13:44.123Z,54.13
2022-12-06T09:16:16.809Z,41.27
2022-12-06T09:18:44.821Z,47.33
2022-12-06T09:21:16.982Z,53.97
2022-12-06T09:23:44.556Z,47.97
2022-12-06T09:26:11.835Z,54.93
2022-12-06T09:28:41.096Z,58.10
2022-12-06T09:31:09.358Z,48.07
2022-12-06T09:33:38.387Z,48.97
2022-12-06T09:36:12.334Z,58.20
2022-12-06T09:38:42.027Z,57.90
2022-12-06T09:41:32.461Z,54.33
2022-12-06T09:44:26.326Z,42.93
2022-12-06T09:47:05.675Z,50.80
2022-12-06T09:49:47.686Z,51.47
2022-12-06T09:52:28.686Z,53.93
2022-12-06T09:55:26.753Z,45.73
2022-12-06T09:58:00.055Z,47.90
2022-12-06T10:00:40.025Z,42.83
2022-12-06T10:03:39.117Z,44.33
2022-12-06T10:06:20.094Z,42.63
2022-12-06T10:09:22.540Z,50.47
2022-12-06T10:12:09.978Z,44.37
2022-12-06T10:14:45.300Z,49.17
2022-12-06T10:17:28.546Z,51.57
2022-12-06T10:20:01.727Z,49.83
2022-12-06T10:22:55.249Z,52.27
2022-12-06T10:25:25.174Z,43.47
2022-12-06T10:28:14.938Z,53.33
2022-12-06T10:30:51.146Z,56.97
2022-12-06T10:33:45.687Z,52.70
2022-12-06T10:36:16.693Z,54.80
2022-12-06T10:38:57.223Z,52.10
2022-12-06T10:41:33.185Z,53.83
2022-12-06T10:44:19.929Z,56.83
2022-12-06T10:47:06.494Z,52.70
2022-12-06T10:50:01.136Z,54.73
2022-12-06T10:52:43.131Z,55.10
2022-12-06T10:55:10.509Z,46.30
2022-12-06T10:57:43.496Z,59.87
2022-12-06T11:00:34.389Z,65.77
2022-12-06T11:03:06.926Z,53.57
2022-12-06T11:05:55.991Z,53.90
2022-12-06T11:08:37.673Z,53.73
2022-12-06T11:11:10.643Z,66.53
2022-12-06T11:13:43.123Z,55.93
2022-12-06T11:16:27.757Z,57.07
2022-12-06T11:19:00.846Z,58.40
2022-12-06T11:21:48.890Z,54.47
2022-12-06T11:24:25.150Z,53.83
2022-12-06T11:26:59.197Z,58.97
2022-12-06T11:29:26.278Z,63.50
2022-12-06T11:31:57.538Z,60.43
2022-12-06T11:34:42.143Z,53.23
2022-12-06T11:37:17.691Z,56.20
2022-12-06T11:39:45.532Z,53.30
2022-12-06T11:42:18.154Z,63.67
2022-12-06T11:44:58.026Z,58.23
2022-12-06T11:47:25.768Z,45.97
2022-12-06T11:49:55.273Z,54.33
2022-12-06T11:52:26.349Z,49.27
2022-12-06T11:55:07.377Z,51.33
2022-12-06T11:57:45.117Z,52.97
2022-12-06T12:00:17.273Z,53.20
2022-12-06T12:02:47.196Z,58.67
2022-12-06T12:05:31.016Z,52.60
2022-12-06T12:08:07.284Z,56.90
2022-12-06T12:10:38.588Z,61.43
2022-12-06T12:13:30.633Z,61.53
2022-12-06T12:16:18.441Z,56.53
2022-12-06T12:19:43.386Z,59.27
2022-12-06T12:22:24.125Z,50.63
2022-12-06T12:25:18.342Z,64.13
2022-12-06T12:27:47.866Z,54.40
2022-12-06T12:30:40.550Z,59.07
2022-12-06T12:33:07.496Z,59.50
2022-12-06T12:35:40.108Z,57.20
2022-12-06T12:38:09.949Z,62.47
2022-12-06T12:40:44.198Z,61.17
2022-12-06T12:43:11.168Z,65.20
2022-12-06T12:46:10.316Z,60.40
2022-12-06T12:48:39.780Z,58.67
2022-12-06T12:51:19.461Z,84.13
2022-12-06T12:53:47.020Z,64.13
2022-12-06T12:56:21.880Z,74.27
2022-12-06T12:58:52.188Z,71.10
2022-12-06T13:01:25.479Z,62.73
2022-12-06T13:03:57.304Z,61.40
2022-12-06T13:06:49.429Z,73.23
2022-12-06T13:09:28.279Z,59.17
2022-12-06T13:12:02.240Z,60.50
2022-12-06T13:14:30.121Z,65.30
2022-12-06T13:17:00.877Z,64.50
2022-12-06T13:19:41.808Z,62.20
2022-12-06T13:22:20.096Z,70.23
2022-12-06T13:25:04.413Z,74.23
2022-12-06T13:27:37.186Z,66.77
2022-12-06T13:30:17.801Z,73.70
2022-12-06T13:33:19.203Z,77.77
2022-12-06T13:36:07.268Z,66.60
2022-12-06T13:38:36.937Z,68.43
2022-12-06T13:41:06.224Z,67.90
2022-12-06T13:43:39.306Z,69.13
2022-12-06T13:46:09.626Z,64.57
2022-12-06T13:49:00.248Z,68.73
2022-12-06T13:51:34.559Z,67.10
2022-12-06T13:54:04.797Z,75.70
2022-12-06T13:56:34.538Z,70.63
2022-12-06T13:59:12.079Z,65.87
2022-12-06T14:01:50.027Z,65.70
2022-12-06T14:04:52.807Z,72.40
2022-12-06T14:07:54.867Z,74.70
2022-12-06T14:11:22.992Z,65.87
2022-12-06T14:14:25.498Z,63.57
2022-12-06T14:17:26.732Z,67.00
2022-12-06T14:20:01.622Z,61.60
2022-12-06T14:22:33.060Z,60.73
2022-12-06T14:25:17.854Z,66.37
2022-12-06T14:27:50.286Z,58.50
2022-12-06T14:30:26.237Z,54.93
2022-12-06T14:32:56.253Z,59.70
2022-12-06T14:35:29.744Z,56.30
2022-12-06T14:38:23.328Z,54.70
2022-12-06T14:41:09.928Z,51.80
2022-12-06T14:43:37.443Z,66.43
2022-12-06T14:46:13.412Z,54.90
2022-12-06T14:48:59.808Z,61.00
2022-12-06T14:51:40.940Z,56.47
2022-12-06T14:54:34.510Z,59.07
2022-12-06T14:57:02.678Z,67.00
2022-12-06T15:02:27.422Z,56.03
2022-12-06T15:04:54.916Z,56.77
2022-12-06T15:07:39.422Z,64.17
2022-12-06T15:10:25.711Z,55.13
2022-12-06T15:12:56.135Z,58.40
2022-12-06T15:15:36.431Z,50.43
2022-12-06T15:18:21.054Z,50.67
2022-12-06T15:20:48.974Z,48.57
2022-12-06T15:23:28.431Z,55.47
2022-12-06T15:25:55.988Z,53.07
2022-12-06T15:28:23.779Z,58.00
2022-12-06T15:30:51.471Z,52.37
2022-12-06T15:33:21.539Z,48.80
2022-12-06T15:35:48.685Z,60.13
2022-12-06T15:38:15.975Z,50.03
2022-12-06T15:40:45.441Z,55.57
2022-12-06T15:43:33.805Z,50.43
2022-12-06T15:46:03.055Z,55.90
2022-12-06T15:48:34.655Z,56.33
2022-12-06T15:51:01.631Z,49.10
2022-12-06T15:53:29.450Z,52.17
2022-12-06T15:55:57.068Z,53.60
2022-12-06T15:58:24.441Z,47.63
2022-12-06T16:00:51.496Z,47.80
2022-12-06T16:03:18.850Z,58.70
2022-12-06T16:05:45.859Z,45.27
2022-12-06T16:08:13.196Z,52.93
2022-12-06T16:11:10.128Z,53.97
2022-12-06T16:13:27.468Z,50.07
2022-12-06T16:15:54.487Z,50.93
2022-12-06T16:18:21.671Z,50.37
2022-12-06T16:20:49.228Z,57.20
2022-12-06T16:24:11.950Z,54.10
2022-12-06T16:26:43.770Z,48.77
2022-12-06T16:29:24.800Z,50.40
2022-12-06T16:31:53.172Z,58.43
2022-12-06T16:34:20.852Z,47.23
2022-12-06T16:36:59.869Z,50.57
2022-12-06T16:39:28.029Z,48.30
2022-12-06T16:41:55.021Z,54.60
2022-12-06T16:44:22.387Z,42.00
2022-12-06T16:46:49.748Z,50.33
2022-12-06T16:49:45.234Z,53.13
2022-12-06T16:52:10.115Z,48.47
2022-12-06T16:54:41.045Z,47.47
2022-12-06T16:57:10.086Z,41.90
2022-12-06T16:59:37.460Z,47.87
2022-12-06T17:02:11.609Z,45.60
2022-12-06T17:04:40.398Z,49.53
2022-12-06T17:07:07.499Z,46.30
2022-12-06T17:09:34.724Z,43.97
2022-12-06T17:12:06.399Z,45.17
2022-12-06T17:14:33.975Z,46.73
2022-12-06T17:17:04.041Z,38.50
2022-12-06T17:19:33.264Z,40.40
2022-12-06T17:22:06.192Z,51.20
2022-12-06T17:24:33.751Z,43.93
2022-12-06T17:27:00.720Z,42.43
2022-12-06T17:29:28.787Z,43.67
2022-12-06T17:31:56.213Z,40.87
2022-12-06T17:34:25.765Z,51.30
2022-12-06T17:36:53.216Z,43.80
2022-12-06T17:39:21.293Z,46.97
2022-12-06T17:42:07.764Z,48.67
2022-12-06T17:44:35.336Z,47.07
2022-12-06T17:47:02.704Z,47.07
2022-12-06T17:49:30.099Z,46.33
2022-12-06T17:51:57.292Z,42.00
2022-12-06T17:54:24.721Z,52.10
2022-12-06T17:56:53.555Z,43.67
2022-12-06T17:59:27.267Z,48.47
2022-12-06T18:02:14.589Z,50.87
2022-12-06T18:04:44.042Z,40.17
2022-12-06T18:07:12.840Z,47.90
2022-12-06T18:09:40.168Z,47.10
2022-12-06T18:12:09.327Z,45.53
2022-12-06T18:14:36.630Z,55.90
2022-12-06T18:17:03.860Z,46.83
2022-12-06T18:19:31.965Z,51.30
2022-12-06T18:21:58.943Z,50.80
2022-12-06T18:24:30.568Z,46.93
2022-12-06T18:27:01.476Z,45.03
2022-12-06T18:29:28.968Z,50.17
2022-12-06T18:31:56.082Z,49.03
2022-12-06T18:34:23.502Z,51.57
2022-12-06T18:36:51.256Z,49.77
2022-12-06T18:39:25.026Z,42.27
2022-12-06T18:41:53.871Z,44.03
2022-12-06T18:44:21.786Z,50.43
2022-12-06T18:46:48.738Z,46.13
2022-12-06T18:49:16.050Z,51.67
2022-12-06T18:51:43.227Z,49.07
2022-12-06T18:54:13.717Z,48.60
2022-12-06T18:56:41.020Z,52.23
2022-12-06T18:59:08.720Z,43.07
2022-12-06T19:01:38.273Z,44.37
2022-12-06T19:04:08.260Z,53.03
2022-12-06T19:06:38.084Z,43.87
2022-12-06T19:09:09.396Z,51.93
2022-12-06T19:11:42.037Z,47.70
2022-12-06T19:14:10.196Z,46.90
2022-12-06T19:16:43.214Z,46.73
2022-12-06T19:19:17.124Z,47.93
2022-12-06T19:21:48.514Z,47.00
2022-12-06T19:24:22.094Z,49.73
2022-12-06T19:26:51.730Z,50.43
2022-12-06T19:29:19.188Z,45.63
2022-12-06T19:31:46.203Z,39.97
2022-12-06T19:34:16.457Z,49.33
2022-12-06T19:36:43.932Z,52.10
2022-12-06T19:39:13.839Z,56.13
2022-12-06T19:41:59.926Z,46.10
2022-12-06T19:44:27.317Z,49.83
2022-12-06T19:46:54.829Z,51.80
2022-12-06T19:49:24.965Z,44.77
2022-12-06T19:51:52.067Z,53.77
2022-12-06T19:54:26.377Z,48.93
2022-12-06T19:56:56.877Z,46.23
2022-12-06T19:59:26.526Z,50.90
2022-12-06T20:01:54.172Z,38.93
2022-12-06T20:04:24.968Z,37.73
2022-12-06T20:06:53.442Z,37.47
2022-12-06T20:09:23.394Z,35.33
2022-12-06T20:12:03.188Z,33.07
2022-12-06T20:14:36.584Z,36.70
2022-12-06T20:17:09.879Z,32.87
2022-12-06T20:19:38.023Z,35.27
2022-12-06T20:22:05.140Z,32.20
2022-12-06T20:24:32.573Z,31.80
2022-12-06T20:26:59.586Z,34.73
2022-12-06T20:29:27.396Z,32.97
2022-12-06T20:31:58.093Z,33.30
2022-12-06T20:34:28.806Z,30.83
2022-12-06T20:36:57.046Z,36.73
2022-12-06T20:39:26.597Z,32.37
2022-12-06T20:41:54.144Z,28.10
2022-12-06T20:44:22.083Z,29.23
2022-12-06T20:46:50.284Z,28.43
2022-12-06T20:49:17.754Z,33.73
2022-12-06T20:51:49.555Z,28.10
2022-12-06T20:54:19.973Z,31.43
2022-12-06T20:56:47.228Z,28.83
2022-12-06T20:59:14.489Z,32.83
2022-12-06T21:01:41.900Z,30.57
2022-12-06T21:04:13.275Z,33.83
2022-12-06T21:06:40.774Z,33.77
2022-12-06T21:09:08.004Z,29.37
2022-12-06T21:11:35.004Z,24.13
2022-12-06T21:14:03.647Z,25.10
2022-12-06T21:16:32.299Z,23.63
2022-12-06T21:19:05.516Z,23.27
2022-12-06T21:21:35.321Z,23.07
2022-12-06T21:24:04.847Z,27.07
2022-12-06T21:26:32.475Z,23.27
2022-12-06T21:28:59.947Z,20.80
2022-12-06T21:31:29.425Z,28.67
2022-12-06T21:33:57.329Z,22.30
2022-12-06T21:36:24.989Z,25.47
2022-12-06T21:38:52.686Z,28.73
2022-12-06T21:41:20.481Z,27.77
2022-12-06T21:43:47.914Z,28.90
2022-12-06T21:46:17.903Z,32.90
2022-12-06T21:48:49.160Z,29.47
2022-12-06T21:51:16.839Z,27.90
2022-12-06T21:53:44.681Z,25.00
2022-12-06T21:56:17.929Z,22.23
2022-12-06T21:58:46.157Z,25.77
2022-12-06T22:01:16.757Z,26.23
2022-12-06T22:03:47.256Z,21.97
2022-12-06T22:06:14.333Z,24.57
2022-12-06T22:08:43.010Z,22.90
2022-12-06T22:11:13.303Z,28.83
2022-12-06T22:13:41.139Z,25.97
2022-12-06T22:16:10.656Z,28.27
2022-12-06T22:18:44.873Z,27.13
2022-12-06T22:21:19.341Z,27.20
2022-12-06T22:23:47.548Z,24.50
2022-12-06T22:26:17.072Z,25.40
2022-12-06T22:28:44.483Z,30.47
2022-12-06T22:31:19.132Z,25.73
2022-12-06T22:33:47.067Z,30.03
2022-12-06T22:36:15.857Z,31.77
2022-12-06T22:38:43.229Z,30.70
2022-12-06T22:41:10.834Z,29.13
2022-12-06T22:43:38.286Z,28.03
2022-12-06T22:46:11.076Z,26.53
2022-12-06T22:48:39.388Z,26.10
2022-12-06T22:51:21.685Z,27.33
2022-12-06T22:53:53.713Z,26.70
2022-12-06T22:56:20.947Z,29.27
2022-12-06T22:58:48.442Z,30.30
2022-12-06T23:01:21.469Z,30.93
2022-12-06T23:03:50.169Z,31.97
2022-12-06T23:06:19.810Z,29.90
2022-12-06T23:08:47.475Z,27.07
2022-12-06T23:11:20.466Z,28.53
2022-12-06T23:13:48.214Z,30.57
2022-12-06T23:16:20.915Z,29.63
2022-12-06T23:18:49.971Z,29.93
2022-12-06T23:21:31.437Z,30.43
2022-12-06T23:24:02.123Z,32.30
2022-12-06T23:26:34.734Z,29.87
2022-12-06T23:29:02.713Z,30.30
2022-12-06T23:31:32.522Z,29.40
2022-12-06T23:34:03.047Z,32.57
2022-12-06T23:36:32.916Z,32.10
2022-12-06T23:39:00.520Z,32.10
2022-12-06T23:41:29.751Z,33.67
2022-12-06T23:43:58.045Z,28.67
2022-12-06T23:46:27.704Z,27.60
2022-12-06T23:48:55.436Z,26.93
2022-12-06T23:51:28.898Z,29.37
2022-12-06T23:53:58.002Z,28.43
2022-12-06T23:56:30.508Z,25.27
2022-12-06T23:58:58.369Z,29.17
